Time;durP1;ratioP1;P1;durP2;ratioP2;P2;SDS_P1;SDS_P2;PMS_P1;PMS_P2;Temp;Humidity;BMP_temperature;BMP_pressure;BME280_temperature;BME280_humidity;BME280_pressure;Samples;Min_cycle;Max_cycle;Signal;HPM_P1;HPM_P2
2022/05/05 00:02:18;;;;;;;5.30;4.80;;;14.70;99.90;;;;;;4955364;28;20225;-85
2022/05/05 00:04:48;;;;;;;7.38;5.45;;;14.80;99.90;;;;;;4955584;28;20231;-86
2022/05/05 00:07:16;;;;;;;5.47;4.97;;;14.80;99.90;;;;;;4955587;28;20296;-86
2022/05/05 00:09:44;;;;;;;5.20;4.70;;;14.80;99.90;;;;;;4955332;28;20260;-85
2022/05/05 00:14:58;;;;;;;5.40;4.90;;;14.80;99.90;;;;;;4955387;29;20232;-86
2022/05/05 00:17:26;;;;;;;5.15;4.75;;;14.80;99.90;;;;;;4955632;28;20213;-85
2022/05/05 00:19:56;;;;;;;4.88;4.57;;;14.80;99.90;;;;;;4955248;28;20209;-86
2022/05/05 00:22:25;;;;;;;5.38;4.82;;;14.80;99.90;;;;;;4955167;28;20225;-85
2022/05/05 00:24:53;;;;;;;5.45;4.95;;;14.80;99.90;;;;;;4955570;28;20225;-86
2022/05/05 00:27:22;;;;;;;5.50;5.05;;;14.80;99.90;;;;;;4955060;28;20233;-86
2022/05/05 00:29:51;;;;;;;5.15;4.75;;;14.70;99.90;;;;;;4955648;28;20213;-85
2022/05/05 00:32:20;;;;;;;5.53;5.03;;;14.70;99.90;;;;;;4955340;28;20243;-86
2022/05/05 00:34:48;;;;;;;6.38;5.88;;;14.70;99.90;;;;;;4955096;28;20231;-87
2022/05/05 00:37:18;;;;;;;5.57;5.03;;;14.70;99.90;;;;;;4955166;28;20236;-86
2022/05/05 00:39:46;;;;;;;7.80;4.82;;;14.70;99.90;;;;;;4954820;28;20205;-85
2022/05/05 00:42:15;;;;;;;5.22;4.72;;;14.60;99.90;;;;;;4954687;28;20301;-86
2022/05/05 00:44:44;;;;;;;6.28;5.00;;;14.60;99.90;;;;;;4955228;28;20233;-87
2022/05/05 00:47:16;;;;;;;4.85;4.45;;;14.50;99.90;;;;;;4954900;28;20209;-86
2022/05/05 00:49:49;;;;;;;6.75;5.38;;;14.50;99.90;;;;;;4954977;28;20228;-86
2022/05/05 00:52:19;;;;;;;6.65;6.05;;;14.40;99.90;;;;;;4954427;28;20233;-85
2022/05/05 00:54:48;;;;;;;6.43;5.75;;;14.30;99.90;;;;;;4955075;28;20233;-86
2022/05/05 00:57:16;;;;;;;8.75;7.70;;;14.30;99.90;;;;;;4954987;28;20205;-86
2022/05/05 00:59:45;;;;;;;7.13;6.53;;;14.20;99.90;;;;;;4954622;28;20301;-86
2022/05/05 01:02:14;;;;;;;7.80;7.10;;;14.10;99.90;;;;;;4953948;28;20259;-85
2022/05/05 01:04:42;;;;;;;8.43;7.15;;;14.00;99.90;;;;;;4954541;28;20213;-86
2022/05/05 01:07:11;;;;;;;8.82;8.00;;;14.00;99.90;;;;;;4954556;28;20208;-86
2022/05/05 01:09:41;;;;;;;7.88;7.13;;;14.00;99.90;;;;;;4955240;28;20296;-86
2022/05/05 01:12:11;;;;;;;11.43;8.02;;;14.00;99.90;;;;;;4954687;28;20308;-87
2022/05/05 01:14:39;;;;;;;9.35;8.38;;;13.90;99.90;;;;;;4954674;28;20236;-87
2022/05/05 01:17:08;;;;;;;9.52;8.60;;;13.90;99.90;;;;;;4954683;28;20290;-87
2022/05/05 01:19:36;;;;;;;8.98;8.18;;;13.90;99.90;;;;;;4954571;28;20208;-87
2022/05/05 01:22:06;;;;;;;7.93;7.22;;;13.90;99.90;;;;;;4954276;28;20229;-87
2022/05/05 01:30:08;;;;;;;9.70;8.38;;;14.00;99.90;;;;;;4954681;29;20201;-86
2022/05/05 01:32:36;;;;;;;9.05;7.68;;;13.90;99.90;;;;;;4954424;28;20312;-86
2022/05/05 01:35:06;;;;;;;7.80;6.80;;;13.90;99.90;;;;;;4954703;28;20209;-87
2022/05/05 01:37:35;;;;;;;8.07;7.28;;;13.90;99.90;;;;;;4954477;28;20272;-87
2022/05/05 01:40:05;;;;;;;8.45;7.65;;;13.90;99.90;;;;;;4954811;28;20205;-86
2022/05/05 01:42:33;;;;;;;7.93;7.22;;;14.00;99.90;;;;;;4954376;28;20276;-87
2022/05/05 01:45:01;;;;;;;17.65;8.52;;;13.90;99.90;;;;;;4954337;28;20291;-87
2022/05/05 01:47:29;;;;;;;8.02;7.30;;;13.90;99.90;;;;;;4954453;28;20304;-86
2022/05/05 01:49:59;;;;;;;9.88;7.80;;;13.90;99.90;;;;;;4954230;28;20244;-87
2022/05/05 01:52:28;;;;;;;9.57;8.13;;;13.80;99.90;;;;;;4953867;28;20229;-86
2022/05/05 01:54:58;;;;;;;7.43;6.72;;;13.80;99.90;;;;;;4954371;28;20241;-87
2022/05/05 01:57:27;;;;;;;8.10;7.40;;;13.80;99.90;;;;;;4954158;28;20229;-86
2022/05/05 01:59:55;;;;;;;8.00;7.25;;;13.80;99.90;;;;;;4954205;28;20209;-86
2022/05/05 02:02:24;;;;;;;7.30;6.70;;;13.80;99.90;;;;;;4954285;28;20312;-86
2022/05/05 02:04:53;;;;;;;7.90;7.18;;;13.70;99.90;;;;;;4954040;28;20240;-86
2022/05/05 02:07:21;;;;;;;10.55;7.28;;;13.70;99.90;;;;;;4954081;28;20225;-87
2022/05/05 02:09:49;;;;;;;7.95;6.68;;;13.70;99.90;;;;;;4954496;28;20312;-87
2022/05/05 02:12:20;;;;;;;7.88;6.15;;;13.70;99.90;;;;;;4955395;28;20284;-86
2022/05/05 02:14:48;;;;;;;7.00;6.40;;;13.70;99.90;;;;;;4957815;28;20252;-86
2022/05/05 02:17:16;;;;;;;7.82;7.13;;;13.60;99.90;;;;;;4957543;28;20284;-86
2022/05/05 02:19:44;;;;;;;7.05;6.35;;;13.60;99.90;;;;;;4957888;28;20245;-86
2022/05/05 02:22:14;;;;;;;11.90;7.57;;;13.60;99.90;;;;;;4956969;28;20254;-85
2022/05/05 02:24:42;;;;;;;7.07;6.47;;;13.50;99.90;;;;;;4957382;28;20209;-86
2022/05/05 02:27:11;;;;;;;6.70;6.03;;;13.50;99.90;;;;;;4957412;28;20240;-86
2022/05/05 02:29:42;;;;;;;8.13;6.57;;;13.40;99.90;;;;;;4957390;28;20209;-85
2022/05/05 02:32:10;;;;;;;7.10;6.55;;;13.30;99.90;;;;;;4957134;28;20248;-86
2022/05/05 02:34:38;;;;;;;5.75;5.35;;;13.30;99.90;;;;;;4957180;28;20205;-86
2022/05/05 02:39:52;;;;;;;7.13;6.43;;;13.20;99.90;;;;;;4957198;29;20209;-86
2022/05/05 02:42:21;;;;;;;8.10;6.90;;;13.20;99.90;;;;;;4957119;28;20273;-87
2022/05/05 02:44:51;;;;;;;7.10;6.47;;;13.20;99.90;;;;;;4957234;28;20221;-86
2022/05/05 02:47:19;;;;;;;8.45;7.65;;;13.20;99.90;;;;;;4956866;28;20312;-86
2022/05/05 02:49:48;;;;;;;8.15;7.47;;;13.20;99.90;;;;;;4957169;28;20296;-86
2022/05/05 02:52:16;;;;;;;6.93;6.22;;;13.20;99.90;;;;;;4956912;28;20360;-86
2022/05/05 02:54:51;;;;;;;8.45;7.22;;;13.10;99.90;;;;;;4957216;28;20244;-85
2022/05/05 02:57:20;;;;;;;9.13;8.05;;;13.10;99.90;;;;;;4956790;28;20243;-86
2022/05/05 02:59:49;;;;;;;7.55;6.82;;;13.10;99.90;;;;;;4956925;28;20213;-87
2022/05/05 03:02:19;;;;;;;8.15;7.55;;;13.10;99.90;;;;;;4956552;28;20233;-86
2022/05/05 03:04:48;;;;;;;7.97;7.28;;;13.10;99.90;;;;;;4956721;28;20297;-86
2022/05/05 03:07:16;;;;;;;8.55;7.95;;;13.10;99.90;;;;;;4956772;28;20221;-87
2022/05/05 03:09:45;;;;;;;8.80;7.97;;;13.10;99.90;;;;;;4957054;28;20212;-86
2022/05/05 03:12:13;;;;;;;9.55;8.73;;;13.10;99.90;;;;;;4956288;28;20265;-86
2022/05/05 03:14:43;;;;;;;10.07;9.18;;;13.00;99.90;;;;;;4956734;28;20205;-86
2022/05/05 03:17:11;;;;;;;10.45;8.90;;;13.00;99.90;;;;;;4956514;28;20243;-86
2022/05/05 03:19:41;;;;;;;9.10;8.20;;;13.00;99.90;;;;;;4956549;28;20248;-86
2022/05/05 03:22:09;;;;;;;10.73;9.70;;;13.00;99.90;;;;;;4956553;28;20233;-86
2022/05/05 03:24:38;;;;;;;9.60;8.73;;;12.90;99.90;;;;;;4955493;28;20213;-86
2022/05/05 03:27:06;;;;;;;9.55;8.65;;;12.90;99.90;;;;;;4956296;28;20312;-86
2022/05/05 03:29:35;;;;;;;10.02;8.85;;;12.90;99.90;;;;;;4956391;28;20277;-86
2022/05/05 03:32:03;;;;;;;9.93;8.50;;;12.90;99.90;;;;;;4956040;28;20259;-86
2022/05/05 03:34:31;;;;;;;8.75;8.05;;;12.90;99.90;;;;;;4956249;28;20209;-86
2022/05/05 03:37:01;;;;;;;9.68;8.75;;;12.90;99.90;;;;;;4956332;28;20287;-85
2022/05/05 03:39:29;;;;;;;9.57;8.70;;;12.90;99.90;;;;;;4956198;28;20240;-86
2022/05/05 03:41:58;;;;;;;11.48;9.02;;;12.90;99.90;;;;;;4955503;28;20332;-86
2022/05/05 03:44:26;;;;;;;9.85;8.90;;;12.80;99.90;;;;;;4956289;28;20205;-86
2022/05/05 03:47:05;;;;;;;8.68;7.90;;;12.80;99.90;;;;;;4956100;28;20312;-86
2022/05/05 03:49:40;;;;;;;8.80;8.10;;;12.80;99.90;;;;;;4956345;28;20235;-86
2022/05/05 03:52:12;;;;;;;8.30;7.60;;;12.80;99.90;;;;;;4955133;28;20260;-86
2022/05/05 03:54:41;;;;;;;13.32;7.65;;;12.80;99.90;;;;;;4956004;28;20241;-86
2022/05/05 03:57:09;;;;;;;10.43;8.95;;;12.80;99.90;;;;;;4955818;28;20205;-85
2022/05/05 03:59:37;;;;;;;7.95;7.28;;;12.80;99.90;;;;;;4956060;28;20236;-86
2022/05/05 04:02:06;;;;;;;9.20;8.35;;;12.80;99.90;;;;;;4955406;28;20332;-86
2022/05/05 04:04:34;;;;;;;11.52;8.23;;;12.80;99.90;;;;;;4955625;28;20215;-86
2022/05/05 04:07:03;;;;;;;10.13;8.73;;;12.80;99.90;;;;;;4955415;28;20253;-85
2022/05/05 04:09:33;;;;;;;9.23;8.32;;;12.80;99.90;;;;;;4955749;28;20256;-86
2022/05/05 04:12:01;;;;;;;9.80;8.88;;;12.80;99.90;;;;;;4955571;28;20224;-87
2022/05/05 04:14:29;;;;;;;11.77;9.75;;;12.80;99.90;;;;;;4955844;28;20251;-87
2022/05/05 04:16:58;;;;;;;9.20;8.40;;;12.80;99.90;;;;;;4955218;28;20297;-86
2022/05/05 04:19:26;;;;;;;7.10;6.50;;;12.80;99.90;;;;;;4955370;28;20217;-86
2022/05/05 04:21:54;;;;;;;8.05;7.35;;;12.70;99.90;;;;;;4955212;28;20263;-86
2022/05/05 04:24:23;;;;;;;8.77;7.18;;;12.70;99.90;;;;;;4955465;28;20240;-85
2022/05/05 04:26:52;;;;;;;8.55;7.72;;;12.70;99.90;;;;;;4955453;28;20244;-86
2022/05/05 04:29:21;;;;;;;8.20;7.45;;;12.70;99.90;;;;;;4954914;28;20235;-86
2022/05/05 04:31:51;;;;;;;9.98;9.07;;;12.60;99.90;;;;;;4954992;28;20268;-86
2022/05/05 04:34:20;;;;;;;8.10;7.50;;;12.60;99.90;;;;;;4954912;28;20240;-86
2022/05/05 04:36:50;;;;;;;9.20;8.40;;;12.60;99.90;;;;;;4955180;28;20300;-86
2022/05/05 04:39:19;;;;;;;10.55;8.48;;;12.60;99.90;;;;;;4955197;28;20212;-86
2022/05/05 04:41:47;;;;;;;7.88;7.20;;;12.60;99.90;;;;;;4954643;28;20319;-86
2022/05/05 04:44:17;;;;;;;9.07;8.20;;;12.60;99.90;;;;;;4955198;28;20287;-86
2022/05/05 04:46:45;;;;;;;12.27;7.45;;;12.60;99.90;;;;;;4955306;28;20213;-85
2022/05/05 04:49:14;;;;;;;8.98;7.22;;;12.60;99.90;;;;;;4954852;28;20305;-86
2022/05/05 04:51:42;;;;;;;7.40;6.75;;;12.60;99.90;;;;;;4954835;28;20233;-86
2022/05/05 04:54:10;;;;;;;12.10;8.02;;;12.70;99.90;;;;;;4954770;28;20217;-86
2022/05/05 04:56:39;;;;;;;8.23;7.38;;;12.70;99.90;;;;;;4954686;28;20264;-86
2022/05/05 04:59:07;;;;;;;7.50;6.80;;;12.80;99.90;;;;;;4954556;28;20291;-86
2022/05/05 05:01:37;;;;;;;7.68;6.97;;;12.80;99.90;;;;;;4954019;28;20236;-86
2022/05/05 05:04:06;;;;;;;6.28;5.72;;;12.80;99.90;;;;;;4954999;28;20292;-86
2022/05/05 05:06:35;;;;;;;8.38;7.00;;;12.90;99.90;;;;;;4954539;28;20233;-86
2022/05/05 05:09:03;;;;;;;6.50;6.00;;;12.90;99.90;;;;;;4954373;28;20298;-86
2022/05/05 05:11:32;;;;;;;6.68;6.13;;;13.00;99.90;;;;;;4954389;28;20236;-86
2022/05/05 05:14:00;;;;;;;7.28;6.68;;;13.00;99.90;;;;;;4954661;28;20305;-86
2022/05/05 05:16:28;;;;;;;6.70;6.05;;;13.00;99.90;;;;;;4954474;28;20291;-86
2022/05/05 05:19:13;;;;;;;6.97;6.28;;;13.10;99.90;;;;;;4954887;28;20201;-86
2022/05/05 05:21:45;;;;;;;7.10;6.50;;;13.10;99.90;;;;;;4954195;28;20233;-86
2022/05/05 05:24:14;;;;;;;6.43;5.93;;;13.20;99.90;;;;;;4954561;28;20297;-86
2022/05/05 05:26:42;;;;;;;6.18;5.68;;;13.20;99.90;;;;;;4954510;28;20296;-86
2022/05/05 05:29:10;;;;;;;5.75;5.35;;;13.20;99.90;;;;;;4954375;28;20256;-86
2022/05/05 05:31:39;;;;;;;6.40;5.80;;;13.30;99.90;;;;;;4954223;28;20236;-85
2022/05/05 05:34:08;;;;;;;6.90;6.20;;;13.30;99.90;;;;;;4954388;28;20225;-86
2022/05/05 05:36:39;;;;;;;5.80;5.30;;;13.30;99.90;;;;;;4954645;28;20217;-86
2022/05/05 05:39:07;;;;;;;6.40;5.47;;;13.40;99.90;;;;;;4954645;28;20220;-86
2022/05/05 05:41:35;;;;;;;6.53;5.90;;;13.50;99.90;;;;;;4954098;28;20244;-86
2022/05/05 05:44:05;;;;;;;6.45;5.63;;;13.50;99.90;;;;;;4951758;28;20293;-87
2022/05/05 05:46:34;;;;;;;8.20;5.32;;;13.50;99.90;;;;;;4949515;28;20331;-84
2022/05/05 05:49:02;;;;;;;4.90;4.50;;;13.60;99.90;;;;;;4968340;28;20259;-85
2022/05/05 05:51:36;;;;;;;4.47;3.97;;;13.70;99.90;;;;;;4977950;28;20200;-85
2022/05/05 05:54:06;;;;;;;4.07;3.67;;;13.80;99.90;;;;;;4964813;28;20261;-85
2022/05/05 05:56:34;;;;;;;3.60;3.30;;;13.80;99.90;;;;;;4952260;28;20334;-85
2022/05/05 06:10:13;;;;;;;6.13;3.25;;;14.30;99.90;;;;;;4957887;28;20224;-84
2022/05/05 06:21:08;;;;;;;3.40;3.10;;;14.80;99.90;;;;;;4838915;29;20209;-84
2022/05/05 06:24:28;;;;;;;3.13;2.85;;;15.00;99.90;;;;;;4898209;29;20291;-84
2022/05/05 06:28:04;;;;;;;;;;;;;;;;;;;;;
2022/05/05 06:30:59;;;;;;;3.03;2.83;;;15.30;99.90;;;;;;4906554;29;20217;-85
2022/05/05 06:33:47;;;;;;;2.50;2.30;;;15.60;99.90;;;;;;4917337;29;20234;-84
2022/05/05 06:40:02;;;;;;;2.30;2.08;;;15.80;99.90;;;;;;4897878;29;20199;-84
2022/05/05 06:42:59;;;;;;;3.08;2.20;;;16.00;99.90;;;;;;4879177;29;20285;-84
2022/05/05 06:45:35;;;;;;;2.38;2.17;;;16.10;99.90;;;;;;4905425;29;20205;-84
2022/05/05 06:48:05;;;;;;;1.70;1.60;;;16.20;99.90;;;;;;4915276;29;20237;-84
2022/05/05 06:50:44;;;;;;;1.95;1.85;;;16.30;99.90;;;;;;4909360;29;20199;-85
2022/05/05 06:53:12;;;;;;;1.50;1.40;;;16.30;99.90;;;;;;4915961;29;20249;-84
2022/05/05 06:55:40;;;;;;;1.70;1.55;;;16.40;99.90;;;;;;4916880;29;20207;-84
2022/05/05 06:58:09;;;;;;;1.80;1.70;;;16.50;99.90;;;;;;4935623;29;20249;-84
2022/05/05 07:03:23;;;;;;;1.80;1.70;;;16.70;99.90;;;;;;4975899;28;20232;-82
2022/05/05 07:05:53;;;;;;;1.40;1.30;;;16.90;99.90;;;;;;4961720;28;20198;-82
2022/05/05 07:08:21;;;;;;;1.30;1.25;;;17.10;99.90;;;;;;4975973;28;20263;-82
2022/05/05 07:10:55;;;;;;;1.70;1.60;;;17.30;99.90;;;;;;4948775;28;20209;-83
2022/05/05 07:13:24;;;;;;;1.30;1.30;;;17.60;99.90;;;;;;4945208;29;20229;-83
2022/05/05 07:15:53;;;;;;;2.17;1.40;;;17.90;99.90;;;;;;4956781;28;20296;-83
2022/05/05 07:18:21;;;;;;;1.30;1.20;;;18.20;99.90;;;;;;4956921;28;20308;-82
2022/05/05 07:20:50;;;;;;;1.33;1.23;;;18.50;99.90;;;;;;4956768;28;20213;-83
2022/05/05 07:23:20;;;;;;;1.42;1.33;;;18.90;99.90;;;;;;4956165;28;20233;-82
2022/05/05 07:25:48;;;;;;;1.15;1.13;;;19.20;99.90;;;;;;4956185;29;20292;-82
2022/05/05 07:28:16;;;;;;;0.98;0.98;;;19.70;99.90;;;;;;4956213;28;20225;-82
2022/05/05 07:30:45;;;;;;;1.05;1.05;;;20.40;99.90;;;;;;4942744;28;20198;-82
2022/05/05 07:33:14;;;;;;;0.95;0.95;;;21.10;99.90;;;;;;4937150;29;20321;-82
2022/05/05 07:35:42;;;;;;;0.80;0.80;;;22.20;99.90;;;;;;4937472;29;20222;-82
2022/05/05 07:38:11;;;;;;;1.52;1.42;;;23.00;99.90;;;;;;4949802;28;20241;-82
2022/05/05 07:40:40;;;;;;;1.10;1.10;;;23.70;99.90;;;;;;4956316;28;20299;-82
2022/05/05 07:43:10;;;;;;;0.80;0.80;;;24.50;99.80;;;;;;4955562;28;20256;-82
2022/05/05 07:45:38;;;;;;;0.90;0.90;;;25.80;97.40;;;;;;4956469;28;20233;-82
2022/05/05 07:48:07;;;;;;;6.07;1.60;;;27.40;94.10;;;;;;4956334;29;20215;-82
2022/05/05 07:50:36;;;;;;;1.58;1.48;;;29.60;88.50;;;;;;4955720;28;20255;-82
2022/05/05 07:53:04;;;;;;;1.30;1.20;;;29.50;79.80;;;;;;4955708;29;20233;-82
2022/05/05 07:55:33;;;;;;;2.42;1.58;;;28.80;79.00;;;;;;4966688;28;20236;-82
2022/05/05 07:58:03;;;;;;;1.40;1.30;;;27.70;76.60;;;;;;4975108;28;20208;-82
2022/05/05 08:00:31;;;;;;;5.20;4.70;;;27.40;77.40;;;;;;4974783;28;20292;-82
2022/05/05 08:03:00;;;;;;;1.10;1.10;;;27.30;78.40;;;;;;4974811;28;20248;-82
2022/05/05 08:05:28;;;;;;;1.80;1.70;;;27.20;81.10;;;;;;4969786;28;20200;-81
2022/05/05 08:07:57;;;;;;;1.13;1.13;;;28.20;78.80;;;;;;4958356;28;20209;-83
2022/05/05 08:10:28;;;;;;;1.08;1.08;;;29.10;75.40;;;;;;4963491;28;20248;-84
2022/05/05 08:12:56;;;;;;;1.15;1.15;;;28.70;73.90;;;;;;4974788;28;20259;-83
2022/05/05 08:15:27;;;;;;;1.10;1.10;;;29.20;76.20;;;;;;4974805;28;20255;-83
2022/05/05 08:17:58;;;;;;;0.98;0.98;;;30.00;71.80;;;;;;4957301;28;20223;-83
2022/05/05 08:20:30;;;;;;;0.95;0.95;;;30.50;72.00;;;;;;4974692;28;20212;-83
2022/05/05 08:22:58;;;;;;;1.25;1.00;;;30.80;70.60;;;;;;4949601;28;20287;-83
2022/05/05 08:28:31;;;;;;;1.13;1.13;;;30.70;64.70;;;;;;4952372;28;20228;-83
2022/05/05 08:31:01;;;;;;;0.90;0.90;;;31.20;62.30;;;;;;4955163;28;20208;-83
2022/05/05 08:33:30;;;;;;;1.48;1.33;;;30.70;62.20;;;;;;4936326;29;20330;-83
2022/05/05 08:36:00;;;;;;;0.80;0.80;;;30.80;62.50;;;;;;4936333;29;20218;-83
2022/05/05 08:38:28;;;;;;;0.75;0.75;;;30.60;59.20;;;;;;4949204;28;20293;-83
2022/05/05 08:40:58;;;;;;;0.68;0.68;;;29.70;62.30;;;;;;4936362;29;20205;-83
2022/05/05 08:43:26;;;;;;;0.95;0.95;;;28.40;59.40;;;;;;4935995;29;20265;-83
2022/05/05 08:46:21;;;;;;;1.25;1.15;;;26.90;63.00;;;;;;4936429;29;20209;-82
2022/05/05 08:48:50;;;;;;;0.90;0.90;;;25.90;68.50;;;;;;4935953;29;20235;-83
2022/05/05 08:51:24;;;;;;;0.75;0.75;;;26.40;66.40;;;;;;4946972;28;20202;-83
2022/05/05 08:53:57;;;;;;;1.30;1.30;;;27.30;63.80;;;;;;4951621;28;20208;-81
2022/05/05 08:56:25;;;;;;;0.98;0.98;;;27.80;65.00;;;;;;4954731;28;20208;-80
2022/05/05 08:58:54;;;;;;;0.98;0.98;;;28.80;64.00;;;;;;4937466;29;20234;-80
2022/05/05 09:01:24;;;;;;;1.00;0.95;;;29.90;59.20;;;;;;4935444;29;20281;-79
2022/05/05 09:03:52;;;;;;;1.20;1.10;;;30.50;58.60;;;;;;4935897;29;20265;-80
2022/05/05 09:06:22;;;;;;;0.93;0.93;;;29.80;59.10;;;;;;4935853;29;20282;-80
2022/05/05 09:08:52;;;;;;;1.30;1.20;;;29.40;59.00;;;;;;4952278;28;20204;-83
2022/05/05 09:11:20;;;;;;;0.95;0.95;;;29.60;59.10;;;;;;4961486;28;20396;-79
2022/05/05 09:13:49;;;;;;;0.82;0.82;;;29.90;57.50;;;;;;4969816;28;20200;-79
2022/05/05 09:16:26;;;;;;;0.90;0.90;;;29.70;60.80;;;;;;4973993;28;20215;-79
2022/05/05 09:18:55;;;;;;;1.00;1.00;;;29.60;58.10;;;;;;4973792;28;20282;-79
2022/05/05 09:21:34;;;;;;;7.07;1.00;;;29.90;62.60;;;;;;4973278;28;20207;-80
2022/05/05 09:26:56;;;;;;;1.48;1.27;;;29.50;56.40;;;;;;4966774;28;20287;-80
2022/05/05 09:29:25;;;;;;;0.70;0.70;;;29.90;59.20;;;;;;4955253;28;20220;-77
2022/05/05 09:31:54;;;;;;;1.40;1.30;;;29.70;56.60;;;;;;4954330;29;20232;-83
2022/05/05 09:34:23;;;;;;;1.00;0.80;;;30.20;56.60;;;;;;4954678;29;20369;-79
2022/05/05 09:36:51;;;;;;;1.15;1.15;;;30.30;54.90;;;;;;4960511;28;20215;-81
2022/05/05 09:39:19;;;;;;;1.10;1.10;;;30.60;57.50;;;;;;4959734;28;20204;-78
2022/05/05 09:41:49;;;;;;;0.65;0.65;;;30.60;57.50;;;;;;4954052;28;20225;-82
2022/05/05 09:44:21;;;;;;;1.10;1.00;;;31.00;56.60;;;;;;4963340;28;20300;-83
2022/05/05 09:46:50;;;;;;;0.90;0.90;;;31.40;54.30;;;;;;4962792;28;20204;-83
2022/05/05 09:49:21;;;;;;;0.75;0.75;;;31.40;51.20;;;;;;4961885;28;20280;-85
2022/05/05 09:57:39;;;;;;;0.45;0.45;;;31.40;51.40;;;;;;4953984;29;20232;-86
2022/05/05 09:57:41;;;;;;;0.73;0.73;;;31.90;52.60;;;;;;4956139;28;20204;-84
2022/05/05 10:00:23;;;;;;;0.65;0.65;;;31.80;51.50;;;;;;4941700;28;20209;-83
2022/05/05 10:05:44;;;;;;;1.60;1.35;;;31.90;53.10;;;;;;4946758;29;20204;-83
2022/05/05 10:08:16;;;;;;;0.90;0.90;;;32.10;52.40;;;;;;4954309;28;20288;-83
2022/05/05 10:10:45;;;;;;;0.70;0.70;;;32.50;52.50;;;;;;4945351;28;20314;-83
2022/05/05 10:13:14;;;;;;;1.00;1.00;;;32.90;50.90;;;;;;4953867;29;20303;-83
2022/05/05 10:15:42;;;;;;;0.82;0.82;;;33.20;51.80;;;;;;4971268;28;20246;-84
2022/05/05 10:18:27;;;;;;;1.23;0.75;;;33.10;49.10;;;;;;4967032;28;20208;-85
2022/05/05 10:20:59;;;;;;;0.80;0.80;;;33.50;48.00;;;;;;4953733;29;20292;-84
2022/05/05 10:23:38;;;;;;;1.38;0.85;;;33.10;48.10;;;;;;4953642;28;20284;-84
2022/05/05 10:26:10;;;;;;;0.98;0.98;;;33.20;48.10;;;;;;4947892;28;20205;-87
2022/05/05 10:28:40;;;;;;;1.65;1.33;;;32.80;49.60;;;;;;4951594;28;20204;-87
2022/05/05 10:31:13;;;;;;;0.77;0.77;;;32.60;49.20;;;;;;4953597;28;20253;-87
2022/05/05 10:34:00;;;;;;;0.73;0.73;;;31.70;50.00;;;;;;4955871;28;20228;-87
2022/05/05 10:36:31;;;;;;;0.70;0.70;;;30.80;51.10;;;;;;4957632;29;20236;-87
2022/05/05 10:38:59;;;;;;;0.80;0.80;;;30.10;52.00;;;;;;4957231;28;20296;-86
2022/05/05 10:41:39;;;;;;;1.17;1.02;;;29.90;53.70;;;;;;4957204;29;20296;-87
2022/05/05 10:44:23;;;;;;;1.10;1.00;;;30.30;51.60;;;;;;4965536;28;20243;-87
2022/05/05 10:47:02;;;;;;;1.05;1.05;;;29.70;51.70;;;;;;4957156;29;20292;-87
2022/05/05 10:49:52;;;;;;;0.90;0.90;;;30.20;55.20;;;;;;4957190;29;20205;-87
2022/05/05 10:52:32;;;;;;;1.50;1.40;;;30.50;55.00;;;;;;4957001;29;20237;-87
2022/05/05 10:55:26;;;;;;;1.00;1.00;;;31.10;54.90;;;;;;4957084;29;20197;-86
2022/05/05 10:58:48;;;;;;;1.10;1.10;;;31.70;55.20;;;;;;4956773;29;20209;-84
2022/05/05 11:01:16;;;;;;;1.40;1.30;;;32.00;53.40;;;;;;4946801;29;20196;-84
2022/05/05 11:04:06;;;;;;;1.55;1.50;;;32.30;50.60;;;;;;4951117;29;20236;-84
2022/05/05 11:06:36;;;;;;;1.27;1.20;;;32.70;53.20;;;;;;4947836;28;20205;-83
2022/05/05 11:09:07;;;;;;;1.50;1.40;;;33.20;50.50;;;;;;4953905;28;20216;-84
2022/05/05 11:11:42;;;;;;;1.63;1.33;;;32.90;50.50;;;;;;4937143;29;20232;-84
2022/05/05 11:23:00;;;;;;;2.05;1.40;;;30.70;53.80;;;;;;4943929;29;20258;-85
2022/05/05 11:25:30;;;;;;;0.93;0.93;;;29.90;54.90;;;;;;4952497;28;20292;-84
2022/05/05 11:27:59;;;;;;;1.73;1.20;;;29.40;54.40;;;;;;4950372;29;20268;-84
2022/05/05 11:30:27;;;;;;;1.00;1.00;;;28.80;53.80;;;;;;4955782;28;20494;-85
2022/05/05 11:33:01;;;;;;;1.13;1.13;;;28.40;54.10;;;;;;4939939;29;20247;-84
2022/05/05 11:35:57;;;;;;;1.05;1.05;;;27.80;54.90;;;;;;4937194;29;20281;-85
2022/05/05 11:38:28;;;;;;;1.17;1.10;;;27.00;56.30;;;;;;4936932;29;20214;-85
2022/05/05 11:41:04;;;;;;;0.95;0.93;;;26.40;57.00;;;;;;4936862;29;20206;-84
2022/05/05 11:46:21;;;;;;;1.17;1.17;;;25.60;59.30;;;;;;4937168;29;20292;-85
2022/05/05 11:48:54;;;;;;;1.27;1.17;;;25.70;59.60;;;;;;4936860;29;20289;-84
2022/05/05 11:51:27;;;;;;;1.30;1.20;;;25.90;59.90;;;;;;4953520;28;20217;-84
2022/05/05 11:54:07;;;;;;;0.90;0.90;;;26.10;59.60;;;;;;4951964;28;20221;-84
2022/05/05 11:56:45;;;;;;;1.52;1.30;;;26.30;59.70;;;;;;4955347;28;20211;-84
2022/05/05 12:03:26;;;;;;;0.93;0.93;;;26.50;59.90;;;;;;5089941;27;20595;-84
2022/05/05 12:06:06;;;;;;;1.10;1.10;;;26.20;59.40;;;;;;5089946;28;20201;-84
2022/05/05 12:08:50;;;;;;;1.00;1.00;;;25.90;59.30;;;;;;5089897;28;20200;-84
2022/05/05 12:21:26;;;;;;;0.88;0.88;;;24.90;61.80;;;;;;5089376;28;20277;-83
2022/05/05 12:24:00;;;;;;;1.60;1.50;;;24.70;63.70;;;;;;5089159;28;20196;-84
2022/05/05 12:30:10;;;;;;;1.92;1.40;;;24.30;65.80;;;;;;5037341;28;20250;-84
2022/05/05 12:32:55;;;;;;;1.10;1.10;;;24.00;66.70;;;;;;5086692;28;20217;-84
2022/05/05 12:35:30;;;;;;;1.25;1.17;;;23.90;67.00;;;;;;5074908;28;20261;-84
2022/05/05 12:38:01;;;;;;;1.33;1.23;;;23.70;68.30;;;;;;5077506;28;20280;-84
2022/05/05 12:40:30;;;;;;;1.13;1.13;;;23.60;67.50;;;;;;5089515;28;20287;-84
2022/05/05 12:43:03;;;;;;;1.10;1.10;;;23.40;67.60;;;;;;5089053;28;20284;-84
2022/05/05 12:45:33;;;;;;;1.27;1.20;;;23.40;67.80;;;;;;5089417;28;20203;-83
2022/05/05 12:48:03;;;;;;;1.20;1.17;;;23.30;68.60;;;;;;5088952;28;20209;-83
2022/05/05 12:50:36;;;;;;;7.32;1.60;;;23.30;68.80;;;;;;5081622;28;20201;-83
2022/05/05 13:01:36;;;;;;;3.05;1.52;;;23.40;70.50;;;;;;5068190;28;20312;-83
2022/05/05 13:04:07;;;;;;;1.77;1.67;;;23.50;69.60;;;;;;5088426;28;20208;-82
2022/05/05 13:06:37;;;;;;;1.70;1.60;;;23.70;69.60;;;;;;5072992;28;20201;-82
2022/05/05 13:09:09;;;;;;;1.88;1.75;;;23.80;68.50;;;;;;5068590;28;20284;-82
2022/05/05 13:11:38;;;;;;;1.90;1.80;;;23.50;68.10;;;;;;5073972;28;20201;-82
2022/05/05 13:14:06;;;;;;;1.92;1.83;;;23.60;67.90;;;;;;5061067;28;20280;-81
2022/05/05 13:16:36;;;;;;;2.30;2.10;;;23.70;69.50;;;;;;5055403;28;20226;-82
2022/05/05 13:19:06;;;;;;;1.88;1.75;;;23.60;67.30;;;;;;5071318;28;20193;-82
2022/05/05 13:21:36;;;;;;;1.50;1.30;;;24.00;68.20;;;;;;5072498;28;20244;-81
2022/05/05 13:24:07;;;;;;;1.25;1.17;;;24.20;66.40;;;;;;5074646;28;20323;-81
2022/05/05 13:26:38;;;;;;;1.73;1.58;;;24.50;66.70;;;;;;5074912;28;20209;-82
2022/05/05 13:29:06;;;;;;;0.93;0.93;;;24.80;65.70;;;;;;5074341;28;20229;-87
2022/05/05 13:31:34;;;;;;;1.50;1.27;;;25.20;63.80;;;;;;5071040;28;20220;-86
2022/05/05 13:34:02;;;;;;;1.20;1.20;;;25.50;63.70;;;;;;5071302;28;20216;-87
2022/05/05 13:36:31;;;;;;;1.48;1.38;;;25.50;62.00;;;;;;5066070;28;20237;-86
2022/05/05 13:38:59;;;;;;;1.52;1.38;;;25.40;62.90;;;;;;5062286;28;20192;-87
2022/05/05 13:41:34;;;;;;;1.35;1.27;;;25.30;62.50;;;;;;5074369;28;20223;-87
2022/05/05 13:44:11;;;;;;;2.03;1.52;;;25.20;63.00;;;;;;5063678;28;20218;-83
2022/05/05 13:46:40;;;;;;;1.80;1.52;;;25.10;63.40;;;;;;5059229;28;20196;-87
2022/05/05 13:49:09;;;;;;;1.50;1.40;;;24.90;63.50;;;;;;5054911;28;20233;-88
2022/05/05 13:51:38;;;;;;;1.40;1.30;;;24.70;64.20;;;;;;5054145;28;20205;-82
2022/05/05 13:54:26;;;;;;;1.42;1.40;;;24.70;64.10;;;;;;5072882;28;20208;-82
2022/05/05 13:56:56;;;;;;;1.60;1.50;;;24.70;62.90;;;;;;5068452;28;20280;-82
2022/05/05 13:59:25;;;;;;;1.27;1.27;;;24.50;62.60;;;;;;5063206;28;20264;-82
2022/05/05 14:01:53;;;;;;;1.50;1.40;;;24.70;64.60;;;;;;5064242;28;20228;-81
2022/05/05 14:04:21;;;;;;;1.95;1.83;;;24.30;62.10;;;;;;5054408;28;20236;-82
2022/05/05 14:06:50;;;;;;;1.92;1.83;;;24.30;63.10;;;;;;5055558;28;20293;-82
2022/05/05 14:12:15;;;;;;;2.78;2.08;;;24.30;63.30;;;;;;5068730;28;20217;-82
2022/05/05 14:14:44;;;;;;;1.65;1.55;;;23.80;62.50;;;;;;5073323;28;20205;-82
2022/05/05 14:17:13;;;;;;;1.63;1.52;;;23.50;62.30;;;;;;5057259;28;20297;-82
2022/05/05 14:19:43;;;;;;;3.53;1.98;;;23.40;63.10;;;;;;5056903;28;20194;-82
2022/05/05 14:22:12;;;;;;;2.42;1.88;;;23.30;62.80;;;;;;5053210;28;20290;-83
2022/05/05 14:24:40;;;;;;;1.42;1.38;;;23.40;64.20;;;;;;5063766;28;20304;-83
2022/05/05 14:27:10;;;;;;;1.75;1.63;;;23.60;63.50;;;;;;5073942;28;20265;-83
2022/05/05 14:29:38;;;;;;;1.75;1.60;;;23.50;63.40;;;;;;5074151;28;20264;-82
2022/05/05 14:32:07;;;;;;;1.33;1.23;;;23.40;63.40;;;;;;5072954;28;20231;-85
2022/05/05 14:34:36;;;;;;;2.40;1.67;;;23.40;63.70;;;;;;5073543;28;20217;-83
2022/05/05 14:37:05;;;;;;;1.25;1.25;;;23.40;64.90;;;;;;5073123;28;20201;-83
2022/05/05 14:39:33;;;;;;;1.73;1.63;;;23.20;65.00;;;;;;5073441;28;20219;-83